sensor_id;sensor_type;location;lat;lon;timestamp;P1;durP1;ratioP1;P2;durP2;ratioP2
71395;SDS011;59888;55.814;37.132;2023-08-08T00:01:51;9.05;;;2.40;;
71395;SDS011;59888;55.814;37.132;2023-08-08T00:04:17;6.72;;;2.33;;
71395;SDS011;59888;55.814;37.132;2023-08-08T00:06:43;6.07;;;2.30;;
71395;SDS011;59888;55.814;37.132;2023-08-08T00:09:09;5.03;;;2.63;;
71395;SDS011;59888;55.814;37.132;2023-08-08T00:11:35;4.93;;;2.47;;
71395;SDS011;59888;55.814;37.132;2023-08-08T00:14:02;4.50;;;2.50;;
71395;SDS011;59888;55.814;37.132;2023-08-08T00:16:28;5.13;;;2.63;;
71395;SDS011;59888;55.814;37.132;2023-08-08T00:18:54;4.13;;;2.20;;
71395;SDS011;59888;55.814;37.132;2023-08-08T00:21:20;5.18;;;3.03;;
71395;SDS011;59888;55.814;37.132;2023-08-08T00:23:47;6.05;;;2.30;;
71395;SDS011;59888;55.814;37.132;2023-08-08T00:26:13;4.50;;;2.50;;
71395;SDS011;59888;55.814;37.132;2023-08-08T00:28:39;2.90;;;2.10;;
71395;SDS011;59888;55.814;37.132;2023-08-08T00:31:07;5.25;;;2.70;;
71395;SDS011;59888;55.814;37.132;2023-08-08T00:33:34;5.38;;;2.60;;
71395;SDS011;59888;55.814;37.132;2023-08-08T00:36:00;4.80;;;2.42;;
71395;SDS011;59888;55.814;37.132;2023-08-08T00:38:27;5.30;;;2.20;;
71395;SDS011;59888;55.814;37.132;2023-08-08T00:40:53;3.92;;;2.30;;
71395;SDS011;59888;55.814;37.132;2023-08-08T00:43:21;2.78;;;2.20;;
71395;SDS011;59888;55.814;37.132;2023-08-08T00:45:47;6.18;;;2.30;;
71395;SDS011;59888;55.814;37.132;2023-08-08T00:48:13;4.93;;;2.17;;
71395;SDS011;59888;55.814;37.132;2023-08-08T00:50:42;3.42;;;2.25;;
71395;SDS011;59888;55.814;37.132;2023-08-08T00:53:11;7.15;;;2.72;;
71395;SDS011;59888;55.814;37.132;2023-08-08T00:55:38;3.72;;;2.40;;
71395;SDS011;59888;55.814;37.132;2023-08-08T00:58:04;4.55;;;2.60;;
71395;SDS011;59888;55.814;37.132;2023-08-08T01:00:30;6.32;;;2.30;;
71395;SDS011;59888;55.814;37.132;2023-08-08T01:02:57;5.78;;;2.42;;
71395;SDS011;59888;55.814;37.132;2023-08-08T01:05:22;6.95;;;2.58;;
71395;SDS011;59888;55.814;37.132;2023-08-08T01:07:57;5.43;;;2.40;;
71395;SDS011;59888;55.814;37.132;2023-08-08T01:10:39;4.00;;;2.30;;
71395;SDS011;59888;55.814;37.132;2023-08-08T01:13:15;5.18;;;2.17;;
71395;SDS011;59888;55.814;37.132;2023-08-08T01:15:44;4.50;;;2.30;;
71395;SDS011;59888;55.814;37.132;2023-08-08T01:18:13;3.33;;;1.98;;
71395;SDS011;59888;55.814;37.132;2023-08-08T01:20:40;4.38;;;2.55;;
71395;SDS011;59888;55.814;37.132;2023-08-08T01:25:46;4.90;;;2.58;;
71395;SDS011;59888;55.814;37.132;2023-08-08T01:28:14;4.97;;;2.47;;
71395;SDS011;59888;55.814;37.132;2023-08-08T01:30:41;4.13;;;2.35;;
71395;SDS011;59888;55.814;37.132;2023-08-08T01:33:07;4.45;;;2.53;;
71395;SDS011;59888;55.814;37.132;2023-08-08T01:35:38;4.30;;;2.40;;
71395;SDS011;59888;55.814;37.132;2023-08-08T01:38:10;5.05;;;2.72;;
71395;SDS011;59888;55.814;37.132;2023-08-08T01:40:43;4.25;;;2.67;;
71395;SDS011;59888;55.814;37.132;2023-08-08T01:43:10;3.75;;;2.30;;
71395;SDS011;59888;55.814;37.132;2023-08-08T01:45:38;4.68;;;2.53;;
71395;SDS011;59888;55.814;37.132;2023-08-08T01:48:08;4.80;;;2.47;;
71395;SDS011;59888;55.814;37.132;2023-08-08T01:50:35;5.60;;;2.60;;
71395;SDS011;59888;55.814;37.132;2023-08-08T01:53:01;5.25;;;2.50;;
71395;SDS011;59888;55.814;37.132;2023-08-08T01:55:28;4.00;;;2.40;;
71395;SDS011;59888;55.814;37.132;2023-08-08T01:57:54;5.57;;;2.70;;
71395;SDS011;59888;55.814;37.132;2023-08-08T02:00:20;5.93;;;2.40;;
71395;SDS011;59888;55.814;37.132;2023-08-08T02:02:46;3.90;;;2.60;;
71395;SDS011;59888;55.814;37.132;2023-08-08T02:05:12;4.43;;;2.38;;
71395;SDS011;59888;55.814;37.132;2023-08-08T02:07:39;5.20;;;2.47;;
71395;SDS011;59888;55.814;37.132;2023-08-08T02:10:05;9.68;;;2.67;;
71395;SDS011;59888;55.814;37.132;2023-08-08T02:12:32;3.90;;;2.53;;
71395;SDS011;59888;55.814;37.132;2023-08-08T02:14:59;4.72;;;2.45;;
71395;SDS011;59888;55.814;37.132;2023-08-08T02:17:26;6.43;;;2.50;;
71395;SDS011;59888;55.814;37.132;2023-08-08T02:19:52;5.35;;;2.67;;
71395;SDS011;59888;55.814;37.132;2023-08-08T02:22:19;4.40;;;2.45;;
71395;SDS011;59888;55.814;37.132;2023-08-08T02:24:45;6.68;;;3.13;;
71395;SDS011;59888;55.814;37.132;2023-08-08T02:27:12;6.95;;;2.70;;
71395;SDS011;59888;55.814;37.132;2023-08-08T02:29:38;4.93;;;2.72;;
71395;SDS011;59888;55.814;37.132;2023-08-08T02:32:04;3.90;;;2.63;;
71395;SDS011;59888;55.814;37.132;2023-08-08T02:34:30;4.03;;;2.60;;
71395;SDS011;59888;55.814;37.132;2023-08-08T02:36:56;4.28;;;3.08;;
71395;SDS011;59888;55.814;37.132;2023-08-08T02:39:22;7.35;;;3.10;;
71395;SDS011;59888;55.814;37.132;2023-08-08T02:41:48;4.85;;;2.80;;
71395;SDS011;59888;55.814;37.132;2023-08-08T02:44:15;6.70;;;2.88;;
71395;SDS011;59888;55.814;37.132;2023-08-08T02:46:42;5.20;;;2.90;;
71395;SDS011;59888;55.814;37.132;2023-08-08T02:49:08;4.03;;;2.90;;
71395;SDS011;59888;55.814;37.132;2023-08-08T02:51:34;5.30;;;2.70;;
71395;SDS011;59888;55.814;37.132;2023-08-08T02:54:01;4.40;;;2.70;;
71395;SDS011;59888;55.814;37.132;2023-08-08T02:56:29;3.88;;;2.67;;
71395;SDS011;59888;55.814;37.132;2023-08-08T02:58:55;4.95;;;2.65;;
71395;SDS011;59888;55.814;37.132;2023-08-08T03:01:21;6.13;;;2.88;;
71395;SDS011;59888;55.814;37.132;2023-08-08T03:03:48;5.60;;;2.47;;
71395;SDS011;59888;55.814;37.132;2023-08-08T03:06:14;4.13;;;2.78;;
71395;SDS011;59888;55.814;37.132;2023-08-08T03:08:41;5.45;;;2.70;;
71395;SDS011;59888;55.814;37.132;2023-08-08T03:11:08;6.07;;;2.47;;
71395;SDS011;59888;55.814;37.132;2023-08-08T03:13:34;6.25;;;2.70;;
71395;SDS011;59888;55.814;37.132;2023-08-08T03:16:00;6.35;;;3.00;;
71395;SDS011;59888;55.814;37.132;2023-08-08T03:18:27;3.15;;;2.40;;
71395;SDS011;59888;55.814;37.132;2023-08-08T03:20:53;3.33;;;2.45;;
71395;SDS011;59888;55.814;37.132;2023-08-08T03:23:20;4.22;;;2.88;;
71395;SDS011;59888;55.814;37.132;2023-08-08T03:25:48;3.92;;;2.63;;
71395;SDS011;59888;55.814;37.132;2023-08-08T03:28:15;6.10;;;2.60;;
71395;SDS011;59888;55.814;37.132;2023-08-08T03:30:41;5.18;;;2.83;;
71395;SDS011;59888;55.814;37.132;2023-08-08T03:33:09;3.80;;;2.83;;
71395;SDS011;59888;55.814;37.132;2023-08-08T03:35:35;6.28;;;2.83;;
71395;SDS011;59888;55.814;37.132;2023-08-08T03:38:01;5.47;;;2.65;;
71395;SDS011;59888;55.814;37.132;2023-08-08T03:40:28;4.25;;;2.50;;
71395;SDS011;59888;55.814;37.132;2023-08-08T03:42:55;5.05;;;2.50;;
71395;SDS011;59888;55.814;37.132;2023-08-08T03:45:21;3.58;;;2.88;;
71395;SDS011;59888;55.814;37.132;2023-08-08T03:47:48;6.22;;;2.80;;
71395;SDS011;59888;55.814;37.132;2023-08-08T03:50:14;3.78;;;2.92;;
71395;SDS011;59888;55.814;37.132;2023-08-08T03:52:40;6.40;;;2.70;;
71395;SDS011;59888;55.814;37.132;2023-08-08T03:55:10;4.40;;;2.80;;
71395;SDS011;59888;55.814;37.132;2023-08-08T03:57:37;4.53;;;2.60;;
71395;SDS011;59888;55.814;37.132;2023-08-08T04:00:03;5.65;;;2.83;;
71395;SDS011;59888;55.814;37.132;2023-08-08T04:02:39;4.93;;;2.45;;
71395;SDS011;59888;55.814;37.132;2023-08-08T04:05:06;3.90;;;2.90;;
71395;SDS011;59888;55.814;37.132;2023-08-08T04:07:32;5.53;;;2.90;;
71395;SDS011;59888;55.814;37.132;2023-08-08T04:09:58;11.13;;;2.70;;
71395;SDS011;59888;55.814;37.132;2023-08-08T04:12:31;4.53;;;2.50;;
71395;SDS011;59888;55.814;37.132;2023-08-08T04:15:00;3.30;;;2.42;;
71395;SDS011;59888;55.814;37.132;2023-08-08T04:17:26;5.93;;;2.55;;
71395;SDS011;59888;55.814;37.132;2023-08-08T04:19:52;4.90;;;2.63;;
71395;SDS011;59888;55.814;37.132;2023-08-08T04:22:18;3.30;;;2.72;;
71395;SDS011;59888;55.814;37.132;2023-08-08T04:24:44;3.65;;;2.60;;
71395;SDS011;59888;55.814;37.132;2023-08-08T04:27:11;5.60;;;2.83;;
71395;SDS011;59888;55.814;37.132;2023-08-08T04:29:37;4.43;;;3.05;;
71395;SDS011;59888;55.814;37.132;2023-08-08T04:32:03;4.55;;;2.92;;
71395;SDS011;59888;55.814;37.132;2023-08-08T04:34:29;3.63;;;2.70;;
71395;SDS011;59888;55.814;37.132;2023-08-08T04:36:55;4.15;;;2.53;;
71395;SDS011;59888;55.814;37.132;2023-08-08T04:39:21;6.80;;;3.05;;
71395;SDS011;59888;55.814;37.132;2023-08-08T04:41:48;7.78;;;3.17;;
71395;SDS011;59888;55.814;37.132;2023-08-08T04:44:14;5.88;;;2.92;;
71395;SDS011;59888;55.814;37.132;2023-08-08T04:46:40;6.10;;;3.00;;
71395;SDS011;59888;55.814;37.132;2023-08-08T04:49:06;11.23;;;2.88;;
71395;SDS011;59888;55.814;37.132;2023-08-08T04:51:32;5.90;;;2.60;;
71395;SDS011;59888;55.814;37.132;2023-08-08T04:53:58;5.50;;;2.88;;
71395;SDS011;59888;55.814;37.132;2023-08-08T04:56:25;3.67;;;2.75;;
71395;SDS011;59888;55.814;37.132;2023-08-08T04:58:54;5.28;;;2.83;;
71395;SDS011;59888;55.814;37.132;2023-08-08T05:01:20;4.90;;;2.75;;
71395;SDS011;59888;55.814;37.132;2023-08-08T05:03:47;4.00;;;2.50;;
71395;SDS011;59888;55.814;37.132;2023-08-08T05:06:13;6.97;;;2.67;;
71395;SDS011;59888;55.814;37.132;2023-08-08T05:08:39;5.65;;;3.03;;
71395;SDS011;59888;55.814;37.132;2023-08-08T05:11:06;4.68;;;2.65;;
71395;SDS011;59888;55.814;37.132;2023-08-08T05:13:32;5.63;;;2.58;;
71395;SDS011;59888;55.814;37.132;2023-08-08T05:15:58;5.90;;;2.72;;
71395;SDS011;59888;55.814;37.132;2023-08-08T05:18:24;5.32;;;2.90;;
71395;SDS011;59888;55.814;37.132;2023-08-08T05:20:50;5.07;;;2.78;;
71395;SDS011;59888;55.814;37.132;2023-08-08T05:23:16;6.43;;;3.05;;
71395;SDS011;59888;55.814;37.132;2023-08-08T05:25:42;5.38;;;2.80;;
71395;SDS011;59888;55.814;37.132;2023-08-08T05:28:08;4.38;;;2.60;;
71395;SDS011;59888;55.814;37.132;2023-08-08T05:30:34;4.18;;;2.78;;
71395;SDS011;59888;55.814;37.132;2023-08-08T05:33:00;4.93;;;2.90;;
71395;SDS011;59888;55.814;37.132;2023-08-08T05:35:26;8.13;;;2.78;;
71395;SDS011;59888;55.814;37.132;2023-08-08T05:37:53;6.88;;;2.92;;
71395;SDS011;59888;55.814;37.132;2023-08-08T05:40:19;6.80;;;2.95;;
71395;SDS011;59888;55.814;37.132;2023-08-08T05:42:45;5.93;;;2.72;;
71395;SDS011;59888;55.814;37.132;2023-08-08T05:45:12;9.93;;;3.10;;
71395;SDS011;59888;55.814;37.132;2023-08-08T05:47:38;7.47;;;2.92;;
71395;SDS011;59888;55.814;37.132;2023-08-08T05:50:04;6.85;;;3.13;;
71395;SDS011;59888;55.814;37.132;2023-08-08T05:52:30;6.63;;;3.42;;
71395;SDS011;59888;55.814;37.132;2023-08-08T05:54:56;8.65;;;3.40;;
71395;SDS011;59888;55.814;37.132;2023-08-08T05:57:25;5.35;;;2.92;;
71395;SDS011;59888;55.814;37.132;2023-08-08T05:59:52;8.57;;;3.10;;
71395;SDS011;59888;55.814;37.132;2023-08-08T06:02:18;4.32;;;2.90;;
71395;SDS011;59888;55.814;37.132;2023-08-08T06:04:44;4.85;;;2.50;;
71395;SDS011;59888;55.814;37.132;2023-08-08T06:07:10;5.68;;;3.10;;
71395;SDS011;59888;55.814;37.132;2023-08-08T06:09:37;6.38;;;3.40;;
71395;SDS011;59888;55.814;37.132;2023-08-08T06:12:03;8.13;;;3.17;;
71395;SDS011;59888;55.814;37.132;2023-08-08T06:14:30;6.75;;;2.88;;
71395;SDS011;59888;55.814;37.132;2023-08-08T06:16:56;5.30;;;2.65;;
71395;SDS011;59888;55.814;37.132;2023-08-08T06:19:23;6.90;;;3.17;;
71395;SDS011;59888;55.814;37.132;2023-08-08T06:21:51;7.55;;;3.28;;
71395;SDS011;59888;55.814;37.132;2023-08-08T06:24:17;6.20;;;3.17;;
71395;SDS011;59888;55.814;37.132;2023-08-08T06:26:43;5.78;;;3.20;;
71395;SDS011;59888;55.814;37.132;2023-08-08T06:29:09;6.28;;;3.22;;
71395;SDS011;59888;55.814;37.132;2023-08-08T06:31:36;9.02;;;3.20;;
71395;SDS011;59888;55.814;37.132;2023-08-08T06:34:02;6.07;;;3.38;;
71395;SDS011;59888;55.814;37.132;2023-08-08T06:36:28;6.00;;;3.10;;
71395;SDS011;59888;55.814;37.132;2023-08-08T06:38:54;9.20;;;3.50;;
71395;SDS011;59888;55.814;37.132;2023-08-08T06:41:20;5.90;;;3.33;;
71395;SDS011;59888;55.814;37.132;2023-08-08T06:43:46;11.70;;;5.95;;
71395;SDS011;59888;55.814;37.132;2023-08-08T06:46:13;4.78;;;3.40;;
71395;SDS011;59888;55.814;37.132;2023-08-08T06:48:39;6.50;;;3.55;;
71395;SDS011;59888;55.814;37.132;2023-08-08T06:51:07;4.38;;;2.78;;
71395;SDS011;59888;55.814;37.132;2023-08-08T06:53:34;9.02;;;3.80;;
71395;SDS011;59888;55.814;37.132;2023-08-08T06:56:00;5.55;;;3.60;;
71395;SDS011;59888;55.814;37.132;2023-08-08T06:58:26;7.00;;;3.60;;
71395;SDS011;59888;55.814;37.132;2023-08-08T07:00:52;9.15;;;3.83;;
71395;SDS011;59888;55.814;37.132;2023-08-08T07:03:18;7.05;;;3.17;;
71395;SDS011;59888;55.814;37.132;2023-08-08T07:05:44;8.15;;;3.47;;
71395;SDS011;59888;55.814;37.132;2023-08-08T07:08:11;9.35;;;3.80;;
71395;SDS011;59888;55.814;37.132;2023-08-08T07:10:38;7.50;;;3.53;;
71395;SDS011;59888;55.814;37.132;2023-08-08T07:13:04;5.07;;;3.33;;
71395;SDS011;59888;55.814;37.132;2023-08-08T07:15:30;6.20;;;3.60;;
71395;SDS011;59888;55.814;37.132;2023-08-08T07:17:57;7.07;;;4.30;;
71395;SDS011;59888;55.814;37.132;2023-08-08T07:20:23;4.93;;;3.00;;
71395;SDS011;59888;55.814;37.132;2023-08-08T07:22:49;8.15;;;3.50;;
71395;SDS011;59888;55.814;37.132;2023-08-08T07:25:15;7.05;;;3.22;;
71395;SDS011;59888;55.814;37.132;2023-08-08T07:27:42;6.53;;;3.53;;
71395;SDS011;59888;55.814;37.132;2023-08-08T07:30:08;8.60;;;3.00;;
71395;SDS011;59888;55.814;37.132;2023-08-08T07:32:35;6.90;;;3.58;;
71395;SDS011;59888;55.814;37.132;2023-08-08T07:35:01;8.02;;;3.33;;
71395;SDS011;59888;55.814;37.132;2023-08-08T07:37:31;6.18;;;3.80;;
71395;SDS011;59888;55.814;37.132;2023-08-08T07:39:58;5.40;;;3.58;;
71395;SDS011;59888;55.814;37.132;2023-08-08T07:42:25;7.28;;;3.40;;
71395;SDS011;59888;55.814;37.132;2023-08-08T07:44:51;4.70;;;3.50;;
71395;SDS011;59888;55.814;37.132;2023-08-08T07:47:17;5.72;;;3.47;;
71395;SDS011;59888;55.814;37.132;2023-08-08T07:49:43;5.20;;;3.50;;
71395;SDS011;59888;55.814;37.132;2023-08-08T07:52:09;7.22;;;3.90;;
71395;SDS011;59888;55.814;37.132;2023-08-08T07:54:35;8.43;;;3.92;;
71395;SDS011;59888;55.814;37.132;2023-08-08T07:57:02;6.75;;;3.97;;
71395;SDS011;59888;55.814;37.132;2023-08-08T07:59:28;8.02;;;3.78;;
71395;SDS011;59888;55.814;37.132;2023-08-08T08:01:54;7.13;;;3.47;;
71395;SDS011;59888;55.814;37.132;2023-08-08T08:04:20;5.90;;;3.15;;
71395;SDS011;59888;55.814;37.132;2023-08-08T08:06:46;6.80;;;4.10;;
71395;SDS011;59888;55.814;37.132;2023-08-08T08:09:12;6.70;;;4.25;;
71395;SDS011;59888;55.814;37.132;2023-08-08T08:11:39;9.77;;;3.92;;
71395;SDS011;59888;55.814;37.132;2023-08-08T08:14:05;6.90;;;3.65;;
71395;SDS011;59888;55.814;37.132;2023-08-08T08:16:31;9.32;;;3.88;;
71395;SDS011;59888;55.814;37.132;2023-08-08T08:18:57;12.77;;;5.30;;
71395;SDS011;59888;55.814;37.132;2023-08-08T08:21:23;8.95;;;4.18;;
71395;SDS011;59888;55.814;37.132;2023-08-08T08:23:50;8.68;;;4.38;;
71395;SDS011;59888;55.814;37.132;2023-08-08T08:26:16;6.13;;;4.40;;
71395;SDS011;59888;55.814;37.132;2023-08-08T08:28:42;7.82;;;4.15;;
71395;SDS011;59888;55.814;37.132;2023-08-08T08:31:08;9.15;;;4.25;;
71395;SDS011;59888;55.814;37.132;2023-08-08T08:33:34;5.53;;;4.32;;
71395;SDS011;59888;55.814;37.132;2023-08-08T08:36:01;10.00;;;4.50;;
71395;SDS011;59888;55.814;37.132;2023-08-08T08:38:27;7.60;;;4.07;;
71395;SDS011;59888;55.814;37.132;2023-08-08T08:40:53;4.78;;;3.72;;
71395;SDS011;59888;55.814;37.132;2023-08-08T08:43:22;7.78;;;4.25;;
71395;SDS011;59888;55.814;37.132;2023-08-08T08:45:52;7.95;;;4.20;;
71395;SDS011;59888;55.814;37.132;2023-08-08T08:48:19;8.27;;;4.10;;
71395;SDS011;59888;55.814;37.132;2023-08-08T08:50:47;11.02;;;4.45;;
71395;SDS011;59888;55.814;37.132;2023-08-08T08:53:14;7.72;;;3.60;;
71395;SDS011;59888;55.814;37.132;2023-08-08T08:55:41;10.35;;;5.07;;
71395;SDS011;59888;55.814;37.132;2023-08-08T08:58:07;6.72;;;4.00;;
71395;SDS011;59888;55.814;37.132;2023-08-08T09:00:33;5.60;;;3.63;;
71395;SDS011;59888;55.814;37.132;2023-08-08T09:03:01;7.72;;;4.25;;
71395;SDS011;59888;55.814;37.132;2023-08-08T09:05:27;9.23;;;4.22;;
71395;SDS011;59888;55.814;37.132;2023-08-08T09:07:54;8.50;;;4.45;;
71395;SDS011;59888;55.814;37.132;2023-08-08T09:10:20;9.43;;;3.83;;
71395;SDS011;59888;55.814;37.132;2023-08-08T09:12:47;9.57;;;4.00;;
71395;SDS011;59888;55.814;37.132;2023-08-08T09:15:14;7.35;;;4.25;;
71395;SDS011;59888;55.814;37.132;2023-08-08T09:17:41;7.10;;;4.28;;
71395;SDS011;59888;55.814;37.132;2023-08-08T09:20:09;9.20;;;4.53;;
71395;SDS011;59888;55.814;37.132;2023-08-08T09:22:38;8.50;;;4.72;;
71395;SDS011;59888;55.814;37.132;2023-08-08T09:25:05;7.80;;;4.75;;
71395;SDS011;59888;55.814;37.132;2023-08-08T09:27:31;9.82;;;4.30;;
71395;SDS011;59888;55.814;37.132;2023-08-08T09:29:58;9.40;;;4.63;;
71395;SDS011;59888;55.814;37.132;2023-08-08T09:32:28;7.05;;;4.47;;
71395;SDS011;59888;55.814;37.132;2023-08-08T09:34:56;16.17;;;5.25;;
71395;SDS011;59888;55.814;37.132;2023-08-08T09:37:22;10.15;;;4.53;;
71395;SDS011;59888;55.814;37.132;2023-08-08T09:40:07;10.20;;;4.85;;
71395;SDS011;59888;55.814;37.132;2023-08-08T09:42:36;10.50;;;5.28;;
71395;SDS011;59888;55.814;37.132;2023-08-08T09:45:03;9.70;;;4.65;;
71395;SDS011;59888;55.814;37.132;2023-08-08T09:47:32;7.43;;;5.10;;
71395;SDS011;59888;55.814;37.132;2023-08-08T09:50:02;9.38;;;5.07;;
71395;SDS011;59888;55.814;37.132;2023-08-08T09:52:31;6.45;;;5.00;;
71395;SDS011;59888;55.814;37.132;2023-08-08T09:54:59;10.35;;;5.28;;
71395;SDS011;59888;55.814;37.132;2023-08-08T09:57:25;6.32;;;4.25;;
71395;SDS011;59888;55.814;37.132;2023-08-08T09:59:53;8.68;;;4.85;;
71395;SDS011;59888;55.814;37.132;2023-08-08T10:02:20;8.68;;;4.35;;
71395;SDS011;59888;55.814;37.132;2023-08-08T10:04:47;12.90;;;5.43;;
71395;SDS011;59888;55.814;37.132;2023-08-08T10:07:14;8.02;;;4.30;;
71395;SDS011;59888;55.814;37.132;2023-08-08T10:09:40;8.38;;;5.25;;
71395;SDS011;59888;55.814;37.132;2023-08-08T10:12:07;11.13;;;4.57;;
71395;SDS011;59888;55.814;37.132;2023-08-08T10:14:35;8.57;;;4.40;;
71395;SDS011;59888;55.814;37.132;2023-08-08T10:17:04;13.05;;;4.40;;
71395;SDS011;59888;55.814;37.132;2023-08-08T10:19:30;8.13;;;4.72;;
71395;SDS011;59888;55.814;37.132;2023-08-08T10:21:58;6.30;;;4.53;;
71395;SDS011;59888;55.814;37.132;2023-08-08T10:24:33;10.02;;;3.90;;
71395;SDS011;59888;55.814;37.132;2023-08-08T10:27:00;6.22;;;4.25;;
71395;SDS011;59888;55.814;37.132;2023-08-08T10:29:28;5.65;;;4.70;;
71395;SDS011;59888;55.814;37.132;2023-08-08T10:32:02;7.90;;;5.03;;
71395;SDS011;59888;55.814;37.132;2023-08-08T10:34:40;6.10;;;4.38;;
71395;SDS011;59888;55.814;37.132;2023-08-08T10:37:09;7.97;;;4.60;;
71395;SDS011;59888;55.814;37.132;2023-08-08T10:39:57;8.35;;;4.65;;
71395;SDS011;59888;55.814;37.132;2023-08-08T10:42:24;8.27;;;4.20;;
71395;SDS011;59888;55.814;37.132;2023-08-08T10:44:52;8.98;;;5.35;;
71395;SDS011;59888;55.814;37.132;2023-08-08T10:47:41;8.65;;;4.30;;
71395;SDS011;59888;55.814;37.132;2023-08-08T10:50:10;8.75;;;4.70;;
71395;SDS011;59888;55.814;37.132;2023-08-08T10:55:23;8.38;;;5.05;;
71395;SDS011;59888;55.814;37.132;2023-08-08T10:58:08;5.47;;;4.20;;
71395;SDS011;59888;55.814;37.132;2023-08-08T11:00:37;9.45;;;4.90;;
71395;SDS011;59888;55.814;37.132;2023-08-08T11:03:07;8.23;;;5.05;;
71395;SDS011;59888;55.814;37.132;2023-08-08T11:05:37;7.60;;;5.07;;
71395;SDS011;59888;55.814;37.132;2023-08-08T11:08:04;7.65;;;5.05;;
71395;SDS011;59888;55.814;37.132;2023-08-08T11:11:14;9.77;;;4.47;;
71395;SDS011;59888;55.814;37.132;2023-08-08T11:13:21;10.65;;;4.93;;
71395;SDS011;59888;55.814;37.132;2023-08-08T11:15:47;7.15;;;4.85;;
71395;SDS011;59888;55.814;37.132;2023-08-08T11:18:13;7.78;;;5.30;;
71395;SDS011;59888;55.814;37.132;2023-08-08T11:20:39;9.43;;;5.53;;
71395;SDS011;59888;55.814;37.132;2023-08-08T11:23:05;8.70;;;5.32;;
71395;SDS011;59888;55.814;37.132;2023-08-08T11:25:36;9.32;;;5.25;;
71395;SDS011;59888;55.814;37.132;2023-08-08T11:28:03;8.32;;;5.43;;
71395;SDS011;59888;55.814;37.132;2023-08-08T11:30:30;9.25;;;4.68;;
71395;SDS011;59888;55.814;37.132;2023-08-08T11:33:01;11.55;;;5.10;;
71395;SDS011;59888;55.814;37.132;2023-08-08T11:35:27;8.93;;;4.75;;
71395;SDS011;59888;55.814;37.132;2023-08-08T11:37:53;8.30;;;5.25;;
71395;SDS011;59888;55.814;37.132;2023-08-08T11:40:22;8.80;;;5.13;;
71395;SDS011;59888;55.814;37.132;2023-08-08T11:42:50;9.98;;;5.38;;
71395;SDS011;59888;55.814;37.132;2023-08-08T11:45:18;9.48;;;5.45;;
71395;SDS011;59888;55.814;37.132;2023-08-08T11:47:49;12.18;;;5.10;;
71395;SDS011;59888;55.814;37.132;2023-08-08T11:50:20;7.95;;;5.25;;
71395;SDS011;59888;55.814;37.132;2023-08-08T11:52:50;10.90;;;5.32;;
71395;SDS011;59888;55.814;37.132;2023-08-08T11:55:18;7.75;;;5.88;;
71395;SDS011;59888;55.814;37.132;2023-08-08T11:57:49;11.70;;;5.80;;
71395;SDS011;59888;55.814;37.132;2023-08-08T12:00:16;7.25;;;5.43;;
71395;SDS011;59888;55.814;37.132;2023-08-08T12:02:43;10.80;;;5.57;;
71395;SDS011;59888;55.814;37.132;2023-08-08T12:05:11;13.13;;;6.00;;
71395;SDS011;59888;55.814;37.132;2023-08-08T12:07:39;9.10;;;5.55;;
71395;SDS011;59888;55.814;37.132;2023-08-08T12:10:13;10.50;;;6.35;;
71395;SDS011;59888;55.814;37.132;2023-08-08T12:12:56;15.15;;;6.45;;
71395;SDS011;59888;55.814;37.132;2023-08-08T12:15:32;11.80;;;6.43;;
71395;SDS011;59888;55.814;37.132;2023-08-08T12:18:01;10.70;;;5.75;;
71395;SDS011;59888;55.814;37.132;2023-08-08T12:20:28;11.63;;;5.90;;
71395;SDS011;59888;55.814;37.132;2023-08-08T12:22:56;11.80;;;6.22;;
71395;SDS011;59888;55.814;37.132;2023-08-08T12:25:23;6.85;;;5.85;;
71395;SDS011;59888;55.814;37.132;2023-08-08T12:27:49;11.57;;;6.03;;
71395;SDS011;59888;55.814;37.132;2023-08-08T12:30:15;17.85;;;6.40;;
71395;SDS011;59888;55.814;37.132;2023-08-08T12:32:41;12.20;;;5.80;;
71395;SDS011;59888;55.814;37.132;2023-08-08T12:35:07;8.68;;;5.45;;
71395;SDS011;59888;55.814;37.132;2023-08-08T12:37:33;9.32;;;5.82;;
71395;SDS011;59888;55.814;37.132;2023-08-08T12:39:59;9.27;;;6.00;;
71395;SDS011;59888;55.814;37.132;2023-08-08T12:42:30;8.93;;;5.65;;
71395;SDS011;59888;55.814;37.132;2023-08-08T12:44:56;14.00;;;5.65;;
71395;SDS011;59888;55.814;37.132;2023-08-08T12:47:22;13.02;;;5.45;;
71395;SDS011;59888;55.814;37.132;2023-08-08T12:49:48;8.40;;;5.20;;
71395;SDS011;59888;55.814;37.132;2023-08-08T12:52:14;8.30;;;5.63;;
71395;SDS011;59888;55.814;37.132;2023-08-08T12:54:40;9.75;;;5.43;;
71395;SDS011;59888;55.814;37.132;2023-08-08T12:57:06;9.40;;;5.50;;
71395;SDS011;59888;55.814;37.132;2023-08-08T12:59:32;10.18;;;6.05;;
71395;SDS011;59888;55.814;37.132;2023-08-08T13:01:58;12.65;;;5.75;;
71395;SDS011;59888;55.814;37.132;2023-08-08T13:04:25;10.93;;;6.00;;
71395;SDS011;59888;55.814;37.132;2023-08-08T13:06:53;10.20;;;5.80;;
71395;SDS011;59888;55.814;37.132;2023-08-08T13:09:20;9.80;;;5.50;;
71395;SDS011;59888;55.814;37.132;2023-08-08T13:11:46;7.45;;;6.05;;
71395;SDS011;59888;55.814;37.132;2023-08-08T13:14:15;9.68;;;5.10;;
71395;SDS011;59888;55.814;37.132;2023-08-08T13:16:42;7.45;;;4.65;;
71395;SDS011;59888;55.814;37.132;2023-08-08T13:19:08;9.23;;;4.60;;
71395;SDS011;59888;55.814;37.132;2023-08-08T13:21:34;8.57;;;5.07;;
71395;SDS011;59888;55.814;37.132;2023-08-08T13:24:00;6.38;;;4.18;;
71395;SDS011;59888;55.814;37.132;2023-08-08T13:26:26;4.95;;;4.28;;
71395;SDS011;59888;55.814;37.132;2023-08-08T13:29:11;7.43;;;4.25;;
71395;SDS011;59888;55.814;37.132;2023-08-08T13:31:37;8.68;;;4.78;;
71395;SDS011;59888;55.814;37.132;2023-08-08T13:34:03;8.93;;;4.47;;
71395;SDS011;59888;55.814;37.132;2023-08-08T13:36:30;7.90;;;4.13;;
71395;SDS011;59888;55.814;37.132;2023-08-08T13:38:56;6.72;;;4.40;;
71395;SDS011;59888;55.814;37.132;2023-08-08T13:41:22;7.38;;;3.97;;
71395;SDS011;59888;55.814;37.132;2023-08-08T13:43:48;7.68;;;4.38;;
71395;SDS011;59888;55.814;37.132;2023-08-08T13:46:14;6.05;;;4.53;;
71395;SDS011;59888;55.814;37.132;2023-08-08T13:48:40;7.45;;;4.47;;
71395;SDS011;59888;55.814;37.132;2023-08-08T13:51:07;6.35;;;4.57;;
71395;SDS011;59888;55.814;37.132;2023-08-08T13:53:33;8.93;;;4.95;;
71395;SDS011;59888;55.814;37.132;2023-08-08T13:55:59;11.43;;;6.07;;
71395;SDS011;59888;55.814;37.132;2023-08-08T13:58:25;9.10;;;4.95;;
71395;SDS011;59888;55.814;37.132;2023-08-08T14:00:51;4.65;;;3.95;;
71395;SDS011;59888;55.814;37.132;2023-08-08T14:03:18;4.60;;;3.53;;
71395;SDS011;59888;55.814;37.132;2023-08-08T14:05:44;8.23;;;3.70;;
71395;SDS011;59888;55.814;37.132;2023-08-08T14:08:10;5.53;;;3.80;;
71395;SDS011;59888;55.814;37.132;2023-08-08T14:10:36;6.30;;;3.80;;
71395;SDS011;59888;55.814;37.132;2023-08-08T14:13:03;6.68;;;3.92;;
71395;SDS011;59888;55.814;37.132;2023-08-08T14:15:29;5.57;;;3.80;;
71395;SDS011;59888;55.814;37.132;2023-08-08T14:18:06;6.28;;;3.90;;
71395;SDS011;59888;55.814;37.132;2023-08-08T14:20:33;6.55;;;3.60;;
71395;SDS011;59888;55.814;37.132;2023-08-08T14:22:59;8.00;;;3.47;;
71395;SDS011;59888;55.814;37.132;2023-08-08T14:25:26;6.40;;;3.22;;
71395;SDS011;59888;55.814;37.132;2023-08-08T14:27:52;4.38;;;3.55;;
71395;SDS011;59888;55.814;37.132;2023-08-08T14:30:18;6.47;;;3.10;;
71395;SDS011;59888;55.814;37.132;2023-08-08T14:32:46;5.20;;;2.75;;
71395;SDS011;59888;55.814;37.132;2023-08-08T14:35:12;2.83;;;2.50;;
71395;SDS011;59888;55.814;37.132;2023-08-08T14:37:39;7.72;;;2.78;;
71395;SDS011;59888;55.814;37.132;2023-08-08T14:40:05;4.00;;;2.92;;